Time;durP1;ratioP1;P1;durP2;ratioP2;P2;SDS_P1;SDS_P2;PMS_P1;PMS_P2;Temp;Humidity;BMP_temperature;BMP_pressure;BME280_temperature;BME280_humidity;BME280_pressure;Samples;Min_cycle;Max_cycle;Signal;HPM_P1;HPM_P2
2023/09/14 00:01:43;;;;;;;5.07;3.50;;;;;;;12.16;100.00;102173.13;5032717;28;20025;-77
2023/09/14 00:04:08;;;;;;;5.10;3.70;;;;;;;12.15;100.00;102170.56;5033482;28;20048;-77
2023/09/14 00:06:34;;;;;;;6.05;3.88;;;;;;;12.14;100.00;102176.78;5031333;28;20422;-77
2023/09/14 00:08:59;;;;;;;4.43;3.38;;;;;;;12.12;100.00;102170.75;5033139;28;20385;-78
2023/09/14 00:11:24;;;;;;;5.13;3.50;;;;;;;12.07;100.00;102178.94;5032753;28;20115;-78
2023/09/14 00:13:50;;;;;;;4.97;3.50;;;;;;;12.02;100.00;102180.16;5048082;28;20021;-78
2023/09/14 00:16:15;;;;;;;6.78;3.53;;;;;;;12.03;100.00;102184.50;5031745;28;20477;-79
2023/09/14 00:18:40;;;;;;;7.30;3.58;;;;;;;11.93;100.00;102187.66;5048405;28;20028;-78
2023/09/14 00:21:06;;;;;;;7.85;3.78;;;;;;;11.88;100.00;102187.06;5033369;28;20026;-78
2023/09/14 00:23:31;;;;;;;4.78;3.42;;;;;;;11.87;100.00;102182.72;5032756;28;20057;-78
2023/09/14 00:25:56;;;;;;;4.72;3.38;;;;;;;11.88;100.00;102178.31;5033193;28;20033;-78
2023/09/14 00:28:22;;;;;;;5.85;3.65;;;;;;;11.83;100.00;102177.72;5029659;28;20081;-79
2023/09/14 00:30:51;;;;;;;6.90;3.65;;;;;;;11.84;100.00;102182.91;5011831;28;20022;-78
2023/09/14 00:33:17;;;;;;;7.25;3.90;;;;;;;11.86;100.00;102191.59;5013600;28;20025;-78
2023/09/14 00:35:45;;;;;;;6.07;3.53;;;;;;;11.85;100.00;102181.13;5027860;28;20034;-79
2023/09/14 00:38:11;;;;;;;7.45;3.78;;;;;;;11.81;100.00;102180.47;5013733;28;20048;-78
2023/09/14 00:40:38;;;;;;;5.68;3.65;;;;;;;11.79;100.00;102179.69;5013424;28;20033;-79
2023/09/14 00:43:03;;;;;;;7.93;3.53;;;;;;;11.81;100.00;102176.97;5013583;28;20038;-78
2023/09/14 00:45:31;;;;;;;8.10;3.78;;;;;;;11.83;100.00;102173.31;5014425;28;20802;-78
2023/09/14 00:47:58;;;;;;;6.80;3.72;;;;;;;11.77;100.00;102176.28;5014279;28;20032;-79
2023/09/14 00:50:24;;;;;;;7.25;4.40;;;;;;;11.71;100.00;102181.91;5013675;28;20088;-78
2023/09/14 00:52:55;;;;;;;7.97;4.05;;;;;;;11.73;100.00;102177.38;5014054;28;20109;-78
2023/09/14 00:55:22;;;;;;;9.32;3.83;;;;;;;11.67;100.00;102177.75;5027765;28;20032;-78
2023/09/14 00:57:49;;;;;;;6.43;3.78;;;;;;;11.67;100.00;102176.91;5032557;28;20029;-78
2023/09/14 01:00:18;;;;;;;7.60;3.78;;;;;;;11.63;100.00;102173.59;5031989;28;20045;-78
2023/09/14 01:02:44;;;;;;;6.45;4.22;;;;;;;11.62;100.00;102179.78;5032442;28;20067;-79
2023/09/14 01:05:11;;;;;;;6.18;4.07;;;;;;;11.60;100.00;102174.59;5031792;28;20041;-78
2023/09/14 01:07:36;;;;;;;6.13;3.85;;;;;;;11.61;100.00;102173.66;5031667;28;20048;-78
2023/09/14 01:10:04;;;;;;;6.80;3.88;;;;;;;11.60;100.00;102177.22;5032422;28;20379;-78
2023/09/14 01:12:30;;;;;;;7.30;4.07;;;;;;;11.57;100.00;102185.31;5031135;28;20108;-78
2023/09/14 01:15:22;;;;;;;9.48;3.70;;;;;;;11.57;100.00;102190.56;5032421;28;20100;-78
2023/09/14 01:18:30;;;;;;;6.23;3.77;;;;;;;11.58;100.00;102184.38;5046245;28;20120;-78
2023/09/14 01:21:25;;;;;;;8.38;3.58;;;;;;;11.52;100.00;102189.97;5030817;28;20032;-78
2023/09/14 01:24:08;;;;;;;8.70;4.05;;;;;;;11.45;100.00;102187.78;5031466;28;20051;-80
2023/09/14 01:26:34;;;;;;;6.15;3.97;;;;;;;11.43;100.00;102187.03;5031060;28;20041;-78
2023/09/14 01:29:04;;;;;;;7.85;3.90;;;;;;;11.42;100.00;102190.59;5022682;28;20552;-80
2023/09/14 01:31:34;;;;;;;6.68;3.95;;;;;;;11.43;100.00;102187.03;5012205;28;20037;-78
2023/09/14 01:33:59;;;;;;;8.10;3.80;;;;;;;11.35;100.00;102181.34;5011980;28;20018;-80
2023/09/14 01:36:46;;;;;;;8.18;3.78;;;;;;;11.36;100.00;102181.25;5011833;28;20412;-78
2023/09/14 01:39:12;;;;;;;5.72;3.63;;;;;;;11.31;100.00;102183.28;5012050;28;20502;-78
2023/09/14 01:41:39;;;;;;;5.35;3.35;;;;;;;11.30;100.00;102186.88;5012969;28;20109;-78
2023/09/14 01:44:05;;;;;;;6.72;3.67;;;;;;;11.25;100.00;102181.84;5028351;28;20042;-78
2023/09/14 01:46:32;;;;;;;7.18;3.60;;;;;;;11.24;100.00;102176.69;5012084;28;20030;-78
2023/09/14 01:48:58;;;;;;;7.75;3.55;;;;;;;11.20;100.00;102175.97;5011179;28;20018;-78
2023/09/14 01:51:23;;;;;;;5.13;3.47;;;;;;;11.19;100.00;102176.91;5011771;28;20030;-78
2023/09/14 01:53:48;;;;;;;5.40;3.85;;;;;;;11.20;100.00;102177.75;5014414;28;20028;-79
2023/09/14 01:56:14;;;;;;;7.22;3.72;;;;;;;11.14;100.00;102181.56;5032149;28;20032;-78
2023/09/14 01:58:43;;;;;;;5.78;3.70;;;;;;;11.14;100.00;102180.72;5031336;28;20033;-78
2023/09/14 02:01:09;;;;;;;4.80;3.58;;;;;;;11.13;100.00;102174.59;5030577;28;20033;-78
2023/09/14 02:03:34;;;;;;;6.18;3.53;;;;;;;11.10;100.00;102179.19;5046868;28;20544;-78
2023/09/14 02:06:03;;;;;;;4.53;3.20;;;;;;;11.16;100.00;102174.44;5031409;28;20061;-78
2023/09/14 02:08:32;;;;;;;5.47;3.50;;;;;;;11.11;100.00;102179.13;5029064;28;20022;-78
2023/09/14 02:10:58;;;;;;;6.43;3.90;;;;;;;11.12;100.00;102170.28;5032655;28;20029;-78
2023/09/14 02:13:24;;;;;;;4.30;3.13;;;;;;;11.11;100.00;102179.13;5029307;28;20079;-78
2023/09/14 02:15:50;;;;;;;5.88;3.20;;;;;;;11.07;100.00;102179.38;5029740;28;20024;-78
2023/09/14 02:18:16;;;;;;;5.00;3.33;;;;;;;11.01;100.00;102183.19;5045966;28;20393;-78
2023/09/14 02:20:42;;;;;;;7.85;3.13;;;;;;;11.02;100.00;102177.00;5047284;28;20413;-79
2023/09/14 02:23:10;;;;;;;8.65;3.63;;;;;;;10.99;100.00;102178.00;5030430;28;20028;-80
2023/09/14 02:25:36;;;;;;;5.13;3.22;;;;;;;10.89;100.00;102170.69;5046723;28;20044;-78
2023/09/14 02:28:02;;;;;;;5.93;3.15;;;;;;;10.93;100.00;102175.72;5029191;28;20017;-78
2023/09/14 02:30:28;;;;;;;4.25;3.30;;;;;;;10.85;100.00;102174.44;5009892;28;20041;-78
2023/09/14 02:32:53;;;;;;;5.80;3.20;;;;;;;10.86;100.00;102170.88;5011031;28;20026;-78
2023/09/14 02:35:18;;;;;;;6.15;3.20;;;;;;;10.89;100.00;102165.44;5026512;28;20040;-78
2023/09/14 02:37:44;;;;;;;5.47;3.33;;;;;;;10.80;100.00;102163.28;5011006;28;20084;-78
2023/09/14 02:40:10;;;;;;;6.93;3.78;;;;;;;10.79;100.00;102164.19;5013549;28;20109;-79
2023/09/14 02:42:37;;;;;;;6.82;3.33;;;;;;;10.79;100.00;102158.94;5010955;28;20049;-78
2023/09/14 02:45:04;;;;;;;8.18;3.63;;;;;;;10.78;100.00;102163.34;5011499;28;20537;-78
2023/09/14 02:47:30;;;;;;;11.80;3.67;;;;;;;10.77;100.00;102155.53;5012651;28;20026;-80
2023/09/14 02:49:55;;;;;;;5.68;3.28;;;;;;;10.77;100.00;102168.69;5012326;28;20032;-80
2023/09/14 02:52:21;;;;;;;7.57;3.90;;;;;;;10.75;100.00;102168.78;4995745;28;20029;-79
2023/09/14 02:54:46;;;;;;;5.88;3.25;;;;;;;10.75;100.00;102162.66;5038007;28;20029;-78
2023/09/14 02:57:11;;;;;;;5.28;3.42;;;;;;;10.71;100.00;102166.41;5031979;28;20389;-78
2023/09/14 02:59:37;;;;;;;6.03;3.30;;;;;;;10.71;100.00;102163.78;5040881;28;20076;-79
2023/09/14 03:02:02;;;;;;;6.80;3.30;;;;;;;10.70;100.00;102169.97;5037170;28;20100;-78
2023/09/14 03:04:29;;;;;;;8.60;3.95;;;;;;;10.66;100.00;102156.13;5047324;28;20021;-80
2023/09/14 03:06:56;;;;;;;7.78;3.85;;;;;;;10.63;100.00;102165.03;5032381;28;20132;-78
2023/09/14 03:09:21;;;;;;;8.60;3.85;;;;;;;10.62;100.00;102158.06;5031989;28;20366;-78
2023/09/14 03:11:48;;;;;;;6.90;3.60;;;;;;;10.63;100.00;102162.41;5033225;28;20025;-80
2023/09/14 03:14:13;;;;;;;4.97;3.60;;;;;;;10.62;100.00;102162.47;5031180;28;20037;-78
2023/09/14 03:16:39;;;;;;;7.40;3.47;;;;;;;10.58;100.00;102166.22;5032567;28;20048;-78
2023/09/14 03:19:05;;;;;;;7.55;4.18;;;;;;;10.58;100.00;102161.78;5030153;28;20037;-78
2023/09/14 03:21:30;;;;;;;6.00;3.80;;;;;;;10.58;100.00;102156.53;5035872;28;20055;-77
2023/09/14 03:23:56;;;;;;;7.65;3.78;;;;;;;10.52;100.00;102159.50;5043482;28;20017;-78
2023/09/14 03:26:23;;;;;;;6.88;3.88;;;;;;;10.51;100.00;102160.44;5036758;28;20029;-78
2023/09/14 03:28:49;;;;;;;5.68;3.47;;;;;;;10.47;100.00;102169.41;5025179;28;20383;-78
2023/09/14 03:31:15;;;;;;;4.60;3.38;;;;;;;10.50;100.00;102174.50;5015946;28;20033;-78
2023/09/14 03:33:40;;;;;;;7.47;3.83;;;;;;;10.47;100.00;102173.81;5017241;28;20026;-78
2023/09/14 03:36:10;;;;;;;6.47;3.67;;;;;;;10.42;100.00;102170.59;5015841;28;20363;-78
2023/09/14 03:38:36;;;;;;;4.05;3.55;;;;;;;10.40;100.00;102167.16;5014878;28;20125;-78
2023/09/14 03:41:01;;;;;;;7.38;3.78;;;;;;;10.40;100.00;102167.16;5016670;28;20498;-78
2023/09/14 03:43:26;;;;;;;5.45;3.60;;;;;;;10.39;100.00;102171.56;5031833;28;20101;-78
2023/09/14 03:45:52;;;;;;;6.10;3.70;;;;;;;10.36;100.00;102169.94;5015539;28;20109;-78
2023/09/14 03:48:18;;;;;;;7.57;4.00;;;;;;;10.37;100.00;102176.06;5018267;28;20045;-80
2023/09/14 03:50:49;;;;;;;5.57;3.53;;;;;;;10.36;100.00;102174.34;5017800;28;20084;-79
2023/09/14 03:53:17;;;;;;;7.72;3.90;;;;;;;10.32;100.00;102170.19;5016522;28;20040;-79
2023/09/14 03:55:43;;;;;;;6.32;3.50;;;;;;;10.32;100.00;102175.44;5034953;28;20071;-80
2023/09/14 03:58:12;;;;;;;5.25;3.53;;;;;;;10.28;100.00;102171.28;5035781;28;20071;-79
2023/09/14 04:00:37;;;;;;;4.43;3.40;;;;;;;10.24;100.00;102169.75;5036857;28;20025;-79
2023/09/14 04:03:03;;;;;;;7.05;3.80;;;;;;;10.21;100.00;102172.53;5035603;28;20370;-79
2023/09/14 04:05:28;;;;;;;3.83;3.20;;;;;;;10.20;100.00;102171.69;5036429;28;20021;-79
2023/09/14 04:07:54;;;;;;;6.65;3.25;;;;;;;10.16;100.00;102174.50;5049548;28;20107;-81
2023/09/14 04:10:19;;;;;;;4.60;3.20;;;;;;;10.18;100.00;102172.66;5050372;28;20025;-79
2023/09/14 04:12:45;;;;;;;5.22;3.58;;;;;;;10.15;100.00;102165.78;5036169;28;20025;-79
2023/09/14 04:15:11;;;;;;;4.60;3.40;;;;;;;10.14;100.00;102161.44;5034753;28;20065;-79
2023/09/14 04:17:37;;;;;;;6.25;3.40;;;;;;;10.13;100.00;102169.41;5035047;28;20036;-79
2023/09/14 04:20:14;;;;;;;6.80;3.30;;;;;;;10.11;100.00;102160.75;5035279;28;20037;-79
2023/09/14 04:22:39;;;;;;;4.90;3.28;;;;;;;10.05;100.00;102165.41;5035015;28;20026;-78
2023/09/14 04:25:06;;;;;;;4.45;3.30;;;;;;;10.07;100.00;102167.94;5046618;28;20022;-78
2023/09/14 04:27:32;;;;;;;3.95;3.20;;;;;;;10.03;100.00;102164.63;5050409;28;20041;-78
2023/09/14 04:29:57;;;;;;;5.57;3.30;;;;;;;10.04;100.00;102162.84;5033494;28;20038;-78
2023/09/14 04:32:22;;;;;;;7.05;3.28;;;;;;;10.02;100.00;102162.94;5033271;28;20588;-78
2023/09/14 04:34:49;;;;;;;4.90;3.13;;;;;;;9.97;100.00;102170.16;5031411;28;20026;-78
2023/09/14 04:37:14;;;;;;;5.28;3.40;;;;;;;9.98;100.00;102165.75;5029250;28;20022;-78
2023/09/14 04:39:40;;;;;;;4.35;2.88;;;;;;;9.99;100.00;102173.56;5034102;28;20037;-78
2023/09/14 04:42:10;;;;;;;7.60;3.17;;;;;;;9.97;100.00;102170.16;5026823;28;20022;-80
2023/09/14 04:44:35;;;;;;;5.82;3.47;;;;;;;9.97;100.00;102169.31;5026179;28;20254;-80
2023/09/14 04:47:01;;;;;;;5.55;3.28;;;;;;;9.97;100.00;102167.53;5026427;28;20107;-78
2023/09/14 04:49:27;;;;;;;4.97;3.70;;;;;;;9.95;100.00;102160.66;5024735;28;20048;-79
2023/09/14 04:51:52;;;;;;;7.65;4.18;;;;;;;9.92;100.00;102169.56;5025957;28;20025;-78
2023/09/14 04:54:18;;;;;;;5.28;3.55;;;;;;;9.92;100.00;102160.81;5045692;28;20019;-78
2023/09/14 04:56:45;;;;;;;5.53;3.45;;;;;;;9.86;100.00;102169.84;5045170;28;20192;-78
2023/09/14 04:59:11;;;;;;;4.63;3.42;;;;;;;9.84;100.00;102169.09;5052961;28;20028;-77
2023/09/14 05:01:37;;;;;;;4.13;3.20;;;;;;;9.85;100.00;102162.91;5033970;28;20030;-82
2023/09/14 05:04:03;;;;;;;5.90;3.33;;;;;;;9.85;100.00;102165.53;5032724;28;20017;-78
2023/09/14 05:06:28;;;;;;;6.75;3.45;;;;;;;9.82;100.00;102165.69;5032502;28;20383;-78
2023/09/14 05:08:54;;;;;;;3.58;2.90;;;;;;;9.85;100.00;102160.28;5033650;28;20072;-78
2023/09/14 05:11:20;;;;;;;5.18;3.35;;;;;;;9.84;100.00;102166.47;5032487;28;20112;-78
2023/09/14 05:13:46;;;;;;;7.55;3.95;;;;;;;9.80;100.00;102162.28;5031670;28;20500;-81
2023/09/14 05:16:11;;;;;;;4.88;3.42;;;;;;;9.82;100.00;102168.31;5031811;28;20021;-79
2023/09/14 05:18:36;;;;;;;3.90;3.00;;;;;;;9.83;100.00;102171.78;5032860;28;20022;-79
2023/09/14 05:21:03;;;;;;;6.25;3.35;;;;;;;9.81;100.00;102171.88;5032497;28;20037;-78
2023/09/14 05:23:28;;;;;;;6.53;3.60;;;;;;;9.84;100.00;102173.50;5032287;28;20112;-78
2023/09/14 05:25:54;;;;;;;6.28;3.67;;;;;;;9.82;100.00;102176.19;5031072;28;20030;-78
2023/09/14 05:28:19;;;;;;;8.25;3.88;;;;;;;9.79;100.00;102176.34;5028193;28;20018;-78
2023/09/14 05:30:45;;;;;;;7.28;3.70;;;;;;;9.81;100.00;102185.00;5011601;28;20026;-78
2023/09/14 05:33:10;;;;;;;5.57;3.55;;;;;;;9.79;100.00;102176.34;5012079;28;20040;-79
2023/09/14 05:35:36;;;;;;;9.52;4.00;;;;;;;9.82;100.00;102186.72;5012442;28;20022;-79
2023/09/14 05:38:02;;;;;;;10.95;4.07;;;;;;;9.84;100.00;102190.13;5010725;28;20121;-80
2023/09/14 05:40:27;;;;;;;6.45;3.70;;;;;;;9.86;100.00;102193.53;5012399;28;20546;-78
2023/09/14 05:42:53;;;;;;;5.55;3.90;;;;;;;9.86;100.00;102190.03;5011310;28;20073;-78
2023/09/14 05:45:19;;;;;;;9.00;3.80;;;;;;;9.88;100.00;102196.91;5011286;28;20108;-81
2023/09/14 05:47:47;;;;;;;10.02;3.83;;;;;;;9.89;100.00;102189.88;5012322;28;20026;-77
2023/09/14 05:50:13;;;;;;;12.90;4.10;;;;;;;9.90;100.00;102197.69;5010499;28;20438;-78
2023/09/14 05:52:39;;;;;;;12.75;4.25;;;;;;;9.92;100.00;102193.22;5008572;28;20479;-78
2023/09/14 05:55:04;;;;;;;10.95;3.75;;;;;;;9.94;100.00;102196.63;5022590;28;20030;-78
2023/09/14 05:57:31;;;;;;;7.25;3.60;;;;;;;9.96;100.00;102196.53;5030957;28;20026;-81
2023/09/14 05:59:57;;;;;;;7.60;3.95;;;;;;;10.02;100.00;102202.38;5030210;28;20112;-78
2023/09/14 06:02:23;;;;;;;10.95;4.05;;;;;;;10.09;100.00;102209.94;5031305;28;20060;-78
2023/09/14 06:04:49;;;;;;;12.18;4.22;;;;;;;10.09;100.00;102207.31;5032836;28;20400;-78
2023/09/14 06:07:15;;;;;;;7.43;4.13;;;;;;;10.17;100.00;102207.78;5030828;28;20038;-78
2023/09/14 06:09:40;;;;;;;8.13;4.28;;;;;;;10.24;100.00;102203.94;5034073;28;20029;-81
2023/09/14 06:12:06;;;;;;;7.35;4.10;;;;;;;10.32;100.00;102192.09;5032880;28;20021;-79
2023/09/14 06:14:37;;;;;;;9.70;4.80;;;;;;;10.30;100.00;102198.34;5031204;28;20052;-81
2023/09/14 06:17:02;;;;;;;8.02;4.35;;;;;;;10.39;100.00;102191.75;5031685;28;20032;-79
2023/09/14 06:19:28;;;;;;;7.30;4.65;;;;;;;10.48;100.00;102199.22;5034386;28;20041;-78
2023/09/14 06:21:53;;;;;;;8.02;4.68;;;;;;;10.53;100.00;102205.06;5031402;28;20040;-79
2023/09/14 06:24:19;;;;;;;10.52;4.97;;;;;;;10.63;100.00;102206.28;5031918;28;20029;-79
2023/09/14 06:26:47;;;;;;;12.68;5.32;;;;;;;10.68;100.00;102205.13;5031681;28;20449;-78
2023/09/14 06:29:15;;;;;;;13.30;5.28;;;;;;;10.76;100.00;102206.50;5018965;28;20029;-78
2023/09/14 06:31:43;;;;;;;10.60;6.13;;;;;;;10.84;100.00;102205.19;5027983;28;20481;-78
2023/09/14 06:34:09;;;;;;;8.60;5.40;;;;;;;10.94;100.00;102202.91;5009796;28;20398;-79
2023/09/14 06:36:34;;;;;;;8.88;5.90;;;;;;;11.02;100.00;102200.69;5010596;28;20045;-79
2023/09/14 06:39:01;;;;;;;10.18;6.50;;;;;;;11.11;100.00;102199.34;5010642;28;20034;-79
2023/09/14 06:41:26;;;;;;;13.90;8.23;;;;;;;11.20;100.00;102191.78;5011193;28;20010;-78
2023/09/14 06:43:52;;;;;;;17.45;9.20;;;;;;;11.34;100.00;102206.84;5011785;28;20159;-79
2023/09/14 06:46:17;;;;;;;18.95;11.55;;;;;;;11.53;100.00;102193.47;5010899;28;20017;-79
2023/09/14 06:48:43;;;;;;;19.48;11.52;;;;;;;11.67;100.00;102193.56;5009301;28;20450;-79
2023/09/14 06:51:08;;;;;;;22.20;12.52;;;;;;;11.80;100.00;102197.22;5011150;28;20050;-79
2023/09/14 06:53:35;;;;;;;19.05;12.05;;;;;;;11.89;100.00;102187.91;5011367;28;20068;-80
2023/09/14 06:56:08;;;;;;;18.77;12.35;;;;;;;12.08;100.00;102200.91;5027488;28;20359;-79
2023/09/14 06:58:34;;;;;;;25.70;13.07;;;;;;;12.23;100.00;102189.44;5030670;28;20045;-80
2023/09/14 07:01:05;;;;;;;21.50;13.65;;;;;;;12.46;100.00;102203.91;5030019;28;20025;-81
2023/09/14 07:03:31;;;;;;;20.98;12.77;;;;;;;12.65;100.00;102201.00;5030570;28;20049;-81
2023/09/14 07:05:57;;;;;;;18.92;12.93;;;;;;;12.85;100.00;102205.91;5029598;28;20025;-80
2023/09/14 07:08:23;;;;;;;17.33;12.13;;;;;;;13.04;100.00;102201.19;5031280;28;20565;-80
2023/09/14 07:10:49;;;;;;;16.33;12.05;;;;;;;13.31;100.00;102206.56;5045288;28;20075;-80
2023/09/14 07:13:18;;;;;;;22.10;12.40;;;;;;;13.56;100.00;102205.81;5030920;28;20109;-80
2023/09/14 07:15:46;;;;;;;17.05;10.43;;;;;;;13.79;100.00;102197.25;5031047;28;20436;-80
2023/09/14 07:18:31;;;;;;;16.90;10.88;;;;;;;14.02;100.00;102201.03;5029844;28;20037;-80
2023/09/14 07:20:58;;;;;;;15.07;10.52;;;;;;;14.19;100.00;102199.88;5030189;28;20025;-78
2023/09/14 07:23:30;;;;;;;17.65;10.25;;;;;;;14.33;100.00;102202.41;5030412;28;20418;-78
2023/09/14 07:25:56;;;;;;;14.55;10.00;;;;;;;14.57;100.00;102199.94;5029931;28;20026;-78
2023/09/14 07:28:22;;;;;;;15.98;10.18;;;;;;;14.74;100.00;102201.41;5026942;28;20016;-79
2023/09/14 07:30:49;;;;;;;14.38;9.73;;;;;;;14.96;100.00;102201.59;5009315;28;20553;-78
2023/09/14 07:33:16;;;;;;;13.02;9.43;;;;;;;15.17;100.00;102203.66;5010193;28;20032;-79
2023/09/14 07:35:47;;;;;;;13.73;8.73;;;;;;;15.36;100.00;102204.91;5011169;28;20389;-77
2023/09/14 07:38:13;;;;;;;16.00;9.10;;;;;;;15.56;100.00;102205.25;5010183;28;20030;-78
2023/09/14 07:40:39;;;;;;;14.38;8.70;;;;;;;15.74;100.00;102208.41;5011786;28;20544;-79
2023/09/14 07:43:05;;;;;;;17.42;9.63;;;;;;;15.95;100.00;102212.09;5009363;28;20049;-79
2023/09/14 07:45:33;;;;;;;17.05;8.82;;;;;;;16.15;100.00;102214.13;5011096;28;20049;-78
2023/09/14 07:48:01;;;;;;;16.75;9.10;;;;;;;16.35;100.00;102209.06;5010672;28;20048;-79
2023/09/14 07:50:29;;;;;;;12.35;8.55;;;;;;;16.44;100.00;102213.72;5010711;28;20021;-78
2023/09/14 07:52:54;;;;;;;13.55;8.50;;;;;;;16.67;100.00;102210.13;5010362;28;20096;-78
2023/09/14 07:55:21;;;;;;;12.98;7.65;;;;;;;16.83;100.00;102210.66;5022622;28;20033;-79
2023/09/14 07:57:46;;;;;;;18.08;9.07;;;;;;;16.99;100.00;102217.41;5029542;28;20033;-78
2023/09/14 08:00:13;;;;;;;13.70;7.80;;;;;;;17.14;100.00;102219.69;5027517;28;20394;-77
2023/09/14 08:02:38;;;;;;;12.48;8.27;;;;;;;17.33;98.18;102213.75;5031103;28;20037;-78
2023/09/14 08:05:04;;;;;;;12.52;8.60;;;;;;;17.43;98.05;102220.00;5032453;28;20029;-78
2023/09/14 08:07:31;;;;;;;13.82;8.20;;;;;;;17.50;96.17;102215.88;5030010;28;20108;-78
2023/09/14 08:09:56;;;;;;;13.77;8.40;;;;;;;17.46;95.39;102219.75;5030195;28;20014;-78
2023/09/14 08:12:22;;;;;;;15.27;8.50;;;;;;;17.59;94.12;102216.94;5031273;28;20041;-78
2023/09/14 08:14:47;;;;;;;16.00;9.52;;;;;;;17.74;93.50;102207.72;5031181;28;20005;-78
2023/09/14 08:17:13;;;;;;;15.02;9.25;;;;;;;17.90;92.63;102212.63;5033698;28;20030;-77
2023/09/14 08:19:39;;;;;;;14.68;10.38;;;;;;;17.89;92.51;102204.75;5035262;28;20021;-78
2023/09/14 08:22:04;;;;;;;15.73;9.73;;;;;;;17.88;90.67;102217.22;5033293;28;20100;-78
2023/09/14 08:24:29;;;;;;;20.63;10.10;;;;;;;17.95;90.72;102215.75;5033809;28;20029;-78
2023/09/14 08:26:55;;;;;;;14.18;9.95;;;;;;;18.10;89.41;102213.63;5032822;28;20030;-78
2023/09/14 08:29:21;;;;;;;18.02;10.15;;;;;;;18.31;89.14;102218.97;5021888;28;20018;-78
2023/09/14 08:31:48;;;;;;;12.77;9.43;;;;;;;18.30;87.33;102214.59;5013148;28;20034;-78
2023/09/14 08:34:17;;;;;;;15.63;9.40;;;;;;;18.54;86.44;102212.53;5011985;28;20026;-79
2023/09/14 08:36:42;;;;;;;13.65;9.07;;;;;;;18.82;88.50;102220.84;5013651;28;20040;-79
2023/09/14 08:39:07;;;;;;;13.07;9.93;;;;;;;18.84;85.68;102221.56;5027787;28;20022;-78
2023/09/14 08:41:38;;;;;;;18.05;11.48;;;;;;;19.04;84.88;102228.66;5012370;28;20036;-77
2023/09/14 08:44:07;;;;;;;16.67;10.27;;;;;;;18.93;85.53;102229.59;5012302;28;20132;-78
2023/09/14 08:46:34;;;;;;;16.60;11.20;;;;;;;19.04;83.33;102236.66;5012677;28;20441;-78
2023/09/14 08:49:00;;;;;;;15.20;10.95;;;;;;;19.07;82.29;102229.22;5010501;28;20083;-78
2023/09/14 08:51:30;;;;;;;20.20;11.60;;;;;;;18.94;81.03;102225.94;5012901;28;20037;-78
2023/09/14 08:53:56;;;;;;;18.75;11.52;;;;;;;19.26;84.05;102231.13;5012786;28;20017;-77
2023/09/14 08:56:22;;;;;;;17.10;11.60;;;;;;;19.33;79.91;102218.91;5031840;28;20444;-78
2023/09/14 08:58:48;;;;;;;18.65;11.23;;;;;;;19.42;79.16;102220.75;5032129;28;20361;-77
2023/09/14 09:01:17;;;;;;;13.02;10.10;;;;;;;19.67;78.24;102213.25;5034030;28;20041;-78
2023/09/14 09:03:42;;;;;;;16.50;9.88;;;;;;;19.70;76.13;102213.81;5031181;28;20478;-77
2023/09/14 09:06:09;;;;;;;15.00;10.32;;;;;;;19.64;78.01;102218.88;5032149;28;20029;-78
2023/09/14 09:08:36;;;;;;;15.25;10.77;;;;;;;19.52;78.17;102214.59;5033307;28;20041;-78
2023/09/14 09:11:03;;;;;;;15.13;10.10;;;;;;;19.41;79.25;102212.88;5031787;28;20033;-77
2023/09/14 09:13:35;;;;;;;15.15;9.80;;;;;;;19.32;78.20;102217.22;5032228;28;20543;-78
2023/09/14 09:16:01;;;;;;;;;;;;;;;19.63;83.91;102214.50;5033337;28;20029;-78
2023/09/14 09:18:26;;;;;;;12.45;9.40;;;;;;;19.39;78.44;102218.38;5032427;28;20293;-78
2023/09/14 09:20:52;;;;;;;12.18;9.10;;;;;;;19.56;78.73;102206.19;5032037;28;20061;-78
2023/09/14 09:23:21;;;;;;;12.90;8.60;;;;;;;19.95;74.36;102206.19;5031456;28;20760;-78
2023/09/14 09:25:53;;;;;;;12.38;8.32;;;;;;;20.32;73.96;102203.63;5032004;28;20394;-78
2023/09/14 09:28:19;;;;;;;14.13;9.38;;;;;;;20.31;72.15;102204.63;5043653;28;20072;-78
2023/09/14 09:30:53;;;;;;;13.20;9.52;;;;;;;20.34;72.95;102202.50;5011882;28;20494;-77
2023/09/14 09:33:32;;;;;;;13.07;8.45;;;;;;;20.30;74.62;102208.28;5012131;28;20084;-78
2023/09/14 09:35:58;;;;;;;10.55;8.10;;;;;;;20.18;71.64;102207.59;5011517;28;20034;-79
2023/09/14 09:38:27;;;;;;;11.27;8.13;;;;;;;20.43;71.88;102206.19;5010604;28;20037;-78
2023/09/14 09:40:53;;;;;;;12.38;7.25;;;;;;;20.57;72.96;102204.88;5026500;28;20034;-77
2023/09/14 09:43:23;;;;;;;11.75;8.60;;;;;;;20.59;68.24;102201.06;5011166;28;20060;-78
2023/09/14 09:45:48;;;;;;;13.10;7.53;;;;;;;20.96;68.82;102198.38;5010852;28;20033;-77
2023/09/14 09:48:17;;;;;;;12.27;7.35;;;;;;;20.89;66.53;102201.81;5011317;28;20029;-77
2023/09/14 09:50:43;;;;;;;10.65;6.90;;;;;;;20.83;66.43;102197.06;5010999;28;20026;-77
2023/09/14 09:53:12;;;;;;;11.13;6.88;;;;;;;21.09;65.58;102202.53;5009231;28;20084;-78
2023/09/14 09:55:37;;;;;;;8.13;6.05;;;;;;;21.24;67.12;102193.91;5025454;28;20029;-77
2023/09/14 09:58:06;;;;;;;10.25;5.90;;;;;;;21.39;64.44;102198.75;5045955;28;20029;-77
2023/09/14 10:00:36;;;;;;;11.48;7.50;;;;;;;21.74;64.07;102197.94;5030605;28;20033;-77
2023/09/14 10:03:03;;;;;;;12.15;7.10;;;;;;;22.06;63.47;102194.72;5046112;28;20029;-77
2023/09/14 10:05:29;;;;;;;10.27;6.78;;;;;;;22.26;62.84;102192.69;5031018;28;20018;-78
2023/09/14 10:08:00;;;;;;;10.15;6.68;;;;;;;22.15;62.60;102186.59;5046755;28;20029;-77
2023/09/14 10:10:27;;;;;;;7.38;4.68;;;;;;;22.21;58.82;102190.47;5030524;28;20013;-77
2023/09/14 10:12:54;;;;;;;9.20;3.70;;;;;;;22.22;57.75;102189.47;5030585;28;20033;-78
2023/09/14 10:15:20;;;;;;;8.57;4.13;;;;;;;22.05;57.36;102179.66;5031637;28;20040;-76
2023/09/14 10:17:56;;;;;;;5.28;3.10;;;;;;;22.28;57.14;102183.47;5031328;28;20029;-76
2023/09/14 10:20:23;;;;;;;6.22;4.07;;;;;;;22.22;54.50;102181.44;5046586;28;20056;-78
2023/09/14 10:22:50;;;;;;;5.03;3.20;;;;;;;22.28;54.66;102180.81;5030874;28;20358;-76
2023/09/14 10:25:16;;;;;;;5.60;3.03;;;;;;;22.16;52.63;102182.06;5030855;28;20103;-76
2023/09/14 10:27:43;;;;;;;6.65;3.30;;;;;;;21.80;55.25;102181.22;5030543;28;20030;-76
2023/09/14 10:30:14;;;;;;;5.35;3.05;;;;;;;21.79;54.66;102182.22;5011624;28;20026;-77
2023/09/14 10:32:53;;;;;;;6.68;3.00;;;;;;;21.80;53.43;102178.56;5011400;28;20034;-77
2023/09/14 10:35:20;;;;;;;6.53;2.92;;;;;;;22.08;54.08;102179.31;5010219;28;20105;-77
2023/09/14 10:37:49;;;;;;;5.35;3.20;;;;;;;22.00;56.10;102176.53;5010834;28;20386;-76
2023/09/14 10:40:17;;;;;;;5.72;3.40;;;;;;;21.89;56.84;102170.44;5010822;28;20780;-77
2023/09/14 10:42:43;;;;;;;5.93;3.25;;;;;;;21.67;56.79;102168.25;5009787;28;20050;-76
2023/09/14 10:45:13;;;;;;;5.88;2.97;;;;;;;21.27;56.46;102171.34;5009970;28;20037;-76
2023/09/14 10:47:44;;;;;;;7.63;3.05;;;;;;;21.07;58.14;102167.06;5009470;28;20486;-76
2023/09/14 10:50:11;;;;;;;4.93;3.40;;;;;;;20.95;57.48;102164.59;5008668;28;20382;-76
2023/09/14 10:52:38;;;;;;;4.80;2.70;;;;;;;21.03;55.44;102161.16;5009933;28;20437;-76
2023/09/14 10:55:11;;;;;;;4.05;2.53;;;;;;;20.93;56.69;102155.03;5020037;28;20021;-77
2023/09/14 10:57:39;;;;;;;;;;;;;;;21.45;61.91;102155.28;5030093;28;20022;-76
2023/09/14 11:00:05;;;;;;;5.25;2.90;;;;;;;21.49;56.05;102144.13;5029605;28;20400;-76
2023/09/14 11:02:39;;;;;;;5.05;3.10;;;;;;;21.37;57.21;102148.03;5028885;28;20075;-76
2023/09/14 11:05:10;;;;;;;4.22;2.90;;;;;;;21.32;56.36;102150.31;5029419;28;20173;-76
2023/09/14 11:07:47;;;;;;;6.78;3.22;;;;;;;21.36;57.65;102145.50;5029887;28;20041;-76
2023/09/14 11:10:21;;;;;;;5.85;3.08;;;;;;;21.29;56.93;102139.91;5029181;28;20013;-76
2023/09/14 11:12:47;;;;;;;5.80;2.67;;;;;;;21.63;58.40;102137.41;5029325;28;20421;-76
2023/09/14 11:15:20;;;;;;;3.83;2.85;;;;;;;22.12;56.58;102143.16;5030079;28;20021;-76
2023/09/14 11:17:48;;;;;;;6.07;3.00;;;;;;;22.07;53.14;102149.00;5028262;28;20021;-77